sensor_id;sensor_type;location;lat;lon;timestamp;temperature;humidity
37456;DHT22;23316;50.718;7.328;2022-11-12T00:01:50;12.20;55.50
37456;DHT22;23316;50.718;7.328;2022-11-12T00:04:17;12.20;55.50
37456;DHT22;23316;50.718;7.328;2022-11-12T00:06:44;12.20;55.50
37456;DHT22;23316;50.718;7.328;2022-11-12T00:09:11;12.20;55.60
37456;DHT22;23316;50.718;7.328;2022-11-12T00:11:38;12.20;55.50
37456;DHT22;23316;50.718;7.328;2022-11-12T00:14:05;12.20;55.50
37456;DHT22;23316;50.718;7.328;2022-11-12T00:16:33;12.20;55.50
37456;DHT22;23316;50.718;7.328;2022-11-12T00:19:00;12.20;55.50
37456;DHT22;23316;50.718;7.328;2022-11-12T00:21:27;12.10;55.40
37456;DHT22;23316;50.718;7.328;2022-11-12T00:23:54;12.10;55.40
37456;DHT22;23316;50.718;7.328;2022-11-12T00:26:21;12.10;55.40
37456;DHT22;23316;50.718;7.328;2022-11-12T00:28:48;12.10;55.40
37456;DHT22;23316;50.718;7.328;2022-11-12T00:31:15;12.10;55.40
37456;DHT22;23316;50.718;7.328;2022-11-12T00:33:43;12.00;55.30
37456;DHT22;23316;50.718;7.328;2022-11-12T00:36:10;12.00;55.30
37456;DHT22;23316;50.718;7.328;2022-11-12T00:38:37;12.00;55.40
37456;DHT22;23316;50.718;7.328;2022-11-12T00:41:04;12.00;55.40
37456;DHT22;23316;50.718;7.328;2022-11-12T00:43:31;12.00;55.40
37456;DHT22;23316;50.718;7.328;2022-11-12T00:45:58;11.90;55.40
37456;DHT22;23316;50.718;7.328;2022-11-12T00:48:25;11.90;55.30
37456;DHT22;23316;50.718;7.328;2022-11-12T00:50:59;11.90;55.30
37456;DHT22;23316;50.718;7.328;2022-11-12T00:53:25;11.90;55.40
37456;DHT22;23316;50.718;7.328;2022-11-12T00:55:52;11.90;55.40
37456;DHT22;23316;50.718;7.328;2022-11-12T00:58:19;11.80;55.40
37456;DHT22;23316;50.718;7.328;2022-11-12T01:00:46;11.90;55.50
37456;DHT22;23316;50.718;7.328;2022-11-12T01:03:13;11.80;55.40
37456;DHT22;23316;50.718;7.328;2022-11-12T01:05:40;11.80;55.50
37456;DHT22;23316;50.718;7.328;2022-11-12T01:08:08;11.80;55.40
37456;DHT22;23316;50.718;7.328;2022-11-12T01:10:35;11.80;55.50
37456;DHT22;23316;50.718;7.328;2022-11-12T01:13:02;11.80;55.40
37456;DHT22;23316;50.718;7.328;2022-11-12T01:15:29;11.70;55.30
37456;DHT22;23316;50.718;7.328;2022-11-12T01:17:56;11.70;55.30
37456;DHT22;23316;50.718;7.328;2022-11-12T01:20:23;11.70;55.40
37456;DHT22;23316;50.718;7.328;2022-11-12T01:22:50;11.70;55.40
37456;DHT22;23316;50.718;7.328;2022-11-12T01:25:18;11.60;55.40
37456;DHT22;23316;50.718;7.328;2022-11-12T01:27:45;11.60;55.40
37456;DHT22;23316;50.718;7.328;2022-11-12T01:30:12;11.60;55.40
37456;DHT22;23316;50.718;7.328;2022-11-12T01:32:39;11.60;55.40
37456;DHT22;23316;50.718;7.328;2022-11-12T01:35:06;11.50;55.30
37456;DHT22;23316;50.718;7.328;2022-11-12T01:37:33;11.50;55.30
37456;DHT22;23316;50.718;7.328;2022-11-12T01:40:00;11.50;55.40
37456;DHT22;23316;50.718;7.328;2022-11-12T01:42:29;11.50;55.40
37456;DHT22;23316;50.718;7.328;2022-11-12T01:44:57;11.50;55.40
37456;DHT22;23316;50.718;7.328;2022-11-12T01:47:25;11.50;55.50
37456;DHT22;23316;50.718;7.328;2022-11-12T01:49:54;11.40;55.50
37456;DHT22;23316;50.718;7.328;2022-11-12T01:52:23;11.40;55.50
37456;DHT22;23316;50.718;7.328;2022-11-12T01:54:52;11.40;55.50
37456;DHT22;23316;50.718;7.328;2022-11-12T01:57:23;11.40;55.60
37456;DHT22;23316;50.718;7.328;2022-11-12T01:59:52;11.40;55.60
37456;DHT22;23316;50.718;7.328;2022-11-12T02:02:21;11.40;55.60
37456;DHT22;23316;50.718;7.328;2022-11-12T02:04:48;11.30;55.60
37456;DHT22;23316;50.718;7.328;2022-11-12T02:07:15;11.40;55.60
37456;DHT22;23316;50.718;7.328;2022-11-12T02:09:43;11.30;55.60
37456;DHT22;23316;50.718;7.328;2022-11-12T02:12:10;11.30;56.10
37456;DHT22;23316;50.718;7.328;2022-11-12T02:14:59;11.30;55.60
37456;DHT22;23316;50.718;7.328;2022-11-12T02:17:24;11.30;56.10
37456;DHT22;23316;50.718;7.328;2022-11-12T02:19:52;11.30;55.60
37456;DHT22;23316;50.718;7.328;2022-11-12T02:22:20;11.30;55.70
37456;DHT22;23316;50.718;7.328;2022-11-12T02:24:47;11.30;55.70
37456;DHT22;23316;50.718;7.328;2022-11-12T02:27:14;11.30;55.70
37456;DHT22;23316;50.718;7.328;2022-11-12T02:32:44;11.20;55.70
37456;DHT22;23316;50.718;7.328;2022-11-12T02:35:11;11.20;55.70
37456;DHT22;23316;50.718;7.328;2022-11-12T02:37:39;11.20;55.70
37456;DHT22;23316;50.718;7.328;2022-11-12T02:40:06;11.20;55.70
37456;DHT22;23316;50.718;7.328;2022-11-12T02:42:34;11.20;55.70
37456;DHT22;23316;50.718;7.328;2022-11-12T02:45:00;11.20;55.70
37456;DHT22;23316;50.718;7.328;2022-11-12T02:47:27;11.20;55.70
37456;DHT22;23316;50.718;7.328;2022-11-12T02:49:54;11.20;55.70
37456;DHT22;23316;50.718;7.328;2022-11-12T02:52:21;11.20;55.70
37456;DHT22;23316;50.718;7.328;2022-11-12T02:54:50;11.10;55.70
37456;DHT22;23316;50.718;7.328;2022-11-12T02:57:16;11.10;55.70
37456;DHT22;23316;50.718;7.328;2022-11-12T02:59:43;11.10;55.70
37456;DHT22;23316;50.718;7.328;2022-11-12T03:02:10;11.10;55.70
37456;DHT22;23316;50.718;7.328;2022-11-12T03:04:37;11.10;55.80
37456;DHT22;23316;50.718;7.328;2022-11-12T03:07:05;11.10;55.80
37456;DHT22;23316;50.718;7.328;2022-11-12T03:09:32;11.10;55.80
37456;DHT22;23316;50.718;7.328;2022-11-12T03:12:01;11.10;55.80
37456;DHT22;23316;50.718;7.328;2022-11-12T03:14:27;11.10;55.80
37456;DHT22;23316;50.718;7.328;2022-11-12T03:16:54;11.10;55.80
37456;DHT22;23316;50.718;7.328;2022-11-12T03:19:21;11.10;55.80
37456;DHT22;23316;50.718;7.328;2022-11-12T03:21:48;11.00;55.70
37456;DHT22;23316;50.718;7.328;2022-11-12T03:24:15;11.00;55.80
37456;DHT22;23316;50.718;7.328;2022-11-12T03:26:42;11.00;55.80
37456;DHT22;23316;50.718;7.328;2022-11-12T03:29:10;11.00;55.80
37456;DHT22;23316;50.718;7.328;2022-11-12T03:31:37;11.00;55.80
37456;DHT22;23316;50.718;7.328;2022-11-12T03:34:04;11.00;55.80
37456;DHT22;23316;50.718;7.328;2022-11-12T03:36:31;11.00;55.80
37456;DHT22;23316;50.718;7.328;2022-11-12T03:38:58;11.00;55.80
37456;DHT22;23316;50.718;7.328;2022-11-12T03:41:25;10.90;55.80
37456;DHT22;23316;50.718;7.328;2022-11-12T03:43:52;11.00;55.80
37456;DHT22;23316;50.718;7.328;2022-11-12T03:46:20;10.90;55.70
37456;DHT22;23316;50.718;7.328;2022-11-12T03:48:47;10.90;55.70
37456;DHT22;23316;50.718;7.328;2022-11-12T03:51:14;10.90;55.70
37456;DHT22;23316;50.718;7.328;2022-11-12T03:53:43;10.90;55.70
37456;DHT22;23316;50.718;7.328;2022-11-12T03:56:10;10.90;55.70
37456;DHT22;23316;50.718;7.328;2022-11-12T03:58:37;10.90;55.70
37456;DHT22;23316;50.718;7.328;2022-11-12T04:01:04;10.90;55.70
37456;DHT22;23316;50.718;7.328;2022-11-12T04:03:32;10.80;55.70
37456;DHT22;23316;50.718;7.328;2022-11-12T04:05:59;10.80;55.70
37456;DHT22;23316;50.718;7.328;2022-11-12T04:08:43;10.80;55.70
37456;DHT22;23316;50.718;7.328;2022-11-12T04:11:11;10.80;55.70
37456;DHT22;23316;50.718;7.328;2022-11-12T04:13:38;10.80;55.70
37456;DHT22;23316;50.718;7.328;2022-11-12T04:16:05;10.70;55.70
37456;DHT22;23316;50.718;7.328;2022-11-12T04:18:51;10.80;55.70
37456;DHT22;23316;50.718;7.328;2022-11-12T04:21:38;10.70;55.70
37456;DHT22;23316;50.718;7.328;2022-11-12T04:24:20;10.70;55.70
37456;DHT22;23316;50.718;7.328;2022-11-12T04:27:05;10.70;55.70
37456;DHT22;23316;50.718;7.328;2022-11-12T04:29:32;10.70;55.80
37456;DHT22;23316;50.718;7.328;2022-11-12T04:32:17;10.60;55.70
37456;DHT22;23316;50.718;7.328;2022-11-12T04:34:45;10.60;55.70
37456;DHT22;23316;50.718;7.328;2022-11-12T04:37:12;10.60;55.70
37456;DHT22;23316;50.718;7.328;2022-11-12T04:39:39;10.60;55.70
37456;DHT22;23316;50.718;7.328;2022-11-12T04:42:07;10.50;55.60
37456;DHT22;23316;50.718;7.328;2022-11-12T04:47:26;10.60;55.60
37456;DHT22;23316;50.718;7.328;2022-11-12T04:51:33;10.50;55.20
37456;DHT22;23316;50.718;7.328;2022-11-12T04:54:18;10.40;55.80
37456;DHT22;23316;50.718;7.328;2022-11-12T04:56:45;10.30;56.00
37456;DHT22;23316;50.718;7.328;2022-11-12T04:59:12;10.20;56.10
37456;DHT22;23316;50.718;7.328;2022-11-12T05:01:39;10.10;56.20
37456;DHT22;23316;50.718;7.328;2022-11-12T05:04:06;10.10;56.30
37456;DHT22;23316;50.718;7.328;2022-11-12T05:06:35;10.00;56.30
37456;DHT22;23316;50.718;7.328;2022-11-12T05:09:18;10.00;56.40
37456;DHT22;23316;50.718;7.328;2022-11-12T05:11:45;10.00;56.30
37456;DHT22;23316;50.718;7.328;2022-11-12T05:14:13;9.90;56.30
37456;DHT22;23316;50.718;7.328;2022-11-12T05:16:40;9.90;56.40
37456;DHT22;23316;50.718;7.328;2022-11-12T05:19:07;9.80;56.40
37456;DHT22;23316;50.718;7.328;2022-11-12T05:21:36;9.80;56.40
37456;DHT22;23316;50.718;7.328;2022-11-12T05:24:20;9.80;56.50
37456;DHT22;23316;50.718;7.328;2022-11-12T05:26:48;9.80;56.40
37456;DHT22;23316;50.718;7.328;2022-11-12T05:29:15;9.70;56.40
37456;DHT22;23316;50.718;7.328;2022-11-12T05:31:43;9.70;56.90
37456;DHT22;23316;50.718;7.328;2022-11-12T05:34:10;9.70;56.50
37456;DHT22;23316;50.718;7.328;2022-11-12T05:36:39;9.70;56.50
37456;DHT22;23316;50.718;7.328;2022-11-12T05:39:06;9.60;56.50
37456;DHT22;23316;50.718;7.328;2022-11-12T05:41:33;9.70;56.50
37456;DHT22;23316;50.718;7.328;2022-11-12T05:44:00;9.60;57.00
37456;DHT22;23316;50.718;7.328;2022-11-12T05:46:28;9.60;56.50
37456;DHT22;23316;50.718;7.328;2022-11-12T05:48:55;9.60;56.50
37456;DHT22;23316;50.718;7.328;2022-11-12T05:51:22;9.50;56.50
37456;DHT22;23316;50.718;7.328;2022-11-12T05:53:51;9.50;56.40
37456;DHT22;23316;50.718;7.328;2022-11-12T05:56:18;9.50;56.50
37456;DHT22;23316;50.718;7.328;2022-11-12T05:58:45;9.40;56.40
37456;DHT22;23316;50.718;7.328;2022-11-12T06:01:13;9.50;56.50
37456;DHT22;23316;50.718;7.328;2022-11-12T06:03:40;9.40;56.50
37456;DHT22;23316;50.718;7.328;2022-11-12T06:06:19;9.40;56.60
37456;DHT22;23316;50.718;7.328;2022-11-12T06:08:46;9.40;56.70
37456;DHT22;23316;50.718;7.328;2022-11-12T06:11:15;9.30;56.60
37456;DHT22;23316;50.718;7.328;2022-11-12T06:13:42;9.30;56.70
37456;DHT22;23316;50.718;7.328;2022-11-12T06:16:09;9.30;56.70
37456;DHT22;23316;50.718;7.328;2022-11-12T06:18:36;9.30;56.70
37456;DHT22;23316;50.718;7.328;2022-11-12T06:21:05;9.30;56.70
37456;DHT22;23316;50.718;7.328;2022-11-12T06:23:48;9.20;56.70
37456;DHT22;23316;50.718;7.328;2022-11-12T06:26:17;9.20;57.10
37456;DHT22;23316;50.718;7.328;2022-11-12T06:28:46;9.20;56.80
37456;DHT22;23316;50.718;7.328;2022-11-12T06:31:13;9.10;56.80
37456;DHT22;23316;50.718;7.328;2022-11-12T06:33:41;9.20;56.80
37456;DHT22;23316;50.718;7.328;2022-11-12T06:36:10;9.10;56.80
37456;DHT22;23316;50.718;7.328;2022-11-12T06:38:38;9.10;56.90
37456;DHT22;23316;50.718;7.328;2022-11-12T06:41:08;9.10;56.90
37456;DHT22;23316;50.718;7.328;2022-11-12T06:43:37;9.10;56.90
37456;DHT22;23316;50.718;7.328;2022-11-12T06:46:06;9.10;57.00
37456;DHT22;23316;50.718;7.328;2022-11-12T06:48:34;9.00;56.90
37456;DHT22;23316;50.718;7.328;2022-11-12T06:51:06;9.00;56.90
37456;DHT22;23316;50.718;7.328;2022-11-12T06:53:33;9.00;57.20
37456;DHT22;23316;50.718;7.328;2022-11-12T06:56:01;9.00;57.00
37456;DHT22;23316;50.718;7.328;2022-11-12T06:58:28;8.90;57.00
37456;DHT22;23316;50.718;7.328;2022-11-12T07:01:03;9.00;57.00
37456;DHT22;23316;50.718;7.328;2022-11-12T07:03:30;8.90;57.00
37456;DHT22;23316;50.718;7.328;2022-11-12T07:06:01;8.90;57.00
37456;DHT22;23316;50.718;7.328;2022-11-12T07:08:29;8.90;57.10
37456;DHT22;23316;50.718;7.328;2022-11-12T07:10:56;8.90;57.10
37456;DHT22;23316;50.718;7.328;2022-11-12T07:13:24;8.90;57.00
37456;DHT22;23316;50.718;7.328;2022-11-12T07:15:51;8.90;57.10
37456;DHT22;23316;50.718;7.328;2022-11-12T07:18:20;8.90;57.10
37456;DHT22;23316;50.718;7.328;2022-11-12T07:20:47;8.90;57.10
37456;DHT22;23316;50.718;7.328;2022-11-12T07:23:14;8.80;57.10
37456;DHT22;23316;50.718;7.328;2022-11-12T07:25:41;8.80;57.10
37456;DHT22;23316;50.718;7.328;2022-11-12T07:28:08;8.80;57.10
37456;DHT22;23316;50.718;7.328;2022-11-12T07:30:35;8.80;57.10
37456;DHT22;23316;50.718;7.328;2022-11-12T07:33:03;8.80;57.20
37456;DHT22;23316;50.718;7.328;2022-11-12T07:35:31;8.80;57.20
37456;DHT22;23316;50.718;7.328;2022-11-12T07:37:58;8.80;57.20
37456;DHT22;23316;50.718;7.328;2022-11-12T07:40:25;8.80;57.30
37456;DHT22;23316;50.718;7.328;2022-11-12T07:42:53;8.80;57.20
37456;DHT22;23316;50.718;7.328;2022-11-12T07:45:20;8.80;57.20
37456;DHT22;23316;50.718;7.328;2022-11-12T07:47:47;8.80;57.30
37456;DHT22;23316;50.718;7.328;2022-11-12T07:50:14;8.90;57.30
37456;DHT22;23316;50.718;7.328;2022-11-12T07:52:43;8.90;57.40
37456;DHT22;23316;50.718;7.328;2022-11-12T07:55:10;8.90;57.50
37456;DHT22;23316;50.718;7.328;2022-11-12T07:57:37;8.90;57.50
37456;DHT22;23316;50.718;7.328;2022-11-12T08:00:07;8.90;57.50
37456;DHT22;23316;50.718;7.328;2022-11-12T08:02:38;8.90;57.70
37456;DHT22;23316;50.718;7.328;2022-11-12T08:05:06;8.90;57.70
37456;DHT22;23316;50.718;7.328;2022-11-12T08:07:33;8.90;57.90
37456;DHT22;23316;50.718;7.328;2022-11-12T08:10:02;8.90;58.00
37456;DHT22;23316;50.718;7.328;2022-11-12T08:12:29;8.90;58.10
37456;DHT22;23316;50.718;7.328;2022-11-12T08:14:56;9.00;58.30
37456;DHT22;23316;50.718;7.328;2022-11-12T08:17:23;9.00;58.40
37456;DHT22;23316;50.718;7.328;2022-11-12T08:19:50;9.00;58.40
37456;DHT22;23316;50.718;7.328;2022-11-12T08:22:20;9.00;58.40
37456;DHT22;23316;50.718;7.328;2022-11-12T08:24:47;9.00;58.40
37456;DHT22;23316;50.718;7.328;2022-11-12T08:27:15;9.10;58.50
37456;DHT22;23316;50.718;7.328;2022-11-12T08:29:43;9.10;58.60
37456;DHT22;23316;50.718;7.328;2022-11-12T08:32:10;9.20;58.70
37456;DHT22;23316;50.718;7.328;2022-11-12T08:34:37;9.20;58.70
37456;DHT22;23316;50.718;7.328;2022-11-12T08:37:06;9.20;58.80
37456;DHT22;23316;50.718;7.328;2022-11-12T08:39:33;9.30;58.80
37456;DHT22;23316;50.718;7.328;2022-11-12T08:42:00;9.30;58.80
37456;DHT22;23316;50.718;7.328;2022-11-12T08:44:29;9.30;59.00
37456;DHT22;23316;50.718;7.328;2022-11-12T08:46:56;9.30;59.10
37456;DHT22;23316;50.718;7.328;2022-11-12T08:49:24;9.40;59.10
37456;DHT22;23316;50.718;7.328;2022-11-12T08:51:51;9.40;59.10
37456;DHT22;23316;50.718;7.328;2022-11-12T08:54:18;9.40;59.10
37456;DHT22;23316;50.718;7.328;2022-11-12T08:56:46;9.40;59.50
37456;DHT22;23316;50.718;7.328;2022-11-12T08:59:13;9.50;59.20
37456;DHT22;23316;50.718;7.328;2022-11-12T09:01:42;9.50;59.30
37456;DHT22;23316;50.718;7.328;2022-11-12T09:04:09;9.50;59.40
37456;DHT22;23316;50.718;7.328;2022-11-12T09:06:36;9.50;59.50
37456;DHT22;23316;50.718;7.328;2022-11-12T09:09:03;9.60;59.60
37456;DHT22;23316;50.718;7.328;2022-11-12T09:11:31;9.60;59.60
37456;DHT22;23316;50.718;7.328;2022-11-12T09:13:58;9.70;59.60
37456;DHT22;23316;50.718;7.328;2022-11-12T09:16:25;9.70;59.80
37456;DHT22;23316;50.718;7.328;2022-11-12T09:18:54;9.80;59.90
37456;DHT22;23316;50.718;7.328;2022-11-12T09:21:21;9.80;60.10
37456;DHT22;23316;50.718;7.328;2022-11-12T09:23:49;9.90;60.40
37456;DHT22;23316;50.718;7.328;2022-11-12T09:26:16;9.90;60.70
37456;DHT22;23316;50.718;7.328;2022-11-12T09:28:44;10.00;60.70
37456;DHT22;23316;50.718;7.328;2022-11-12T09:31:11;10.00;60.70
37456;DHT22;23316;50.718;7.328;2022-11-12T09:33:38;10.10;60.90
37456;DHT22;23316;50.718;7.328;2022-11-12T09:36:07;10.20;61.10
37456;DHT22;23316;50.718;7.328;2022-11-12T09:38:34;10.20;61.00
37456;DHT22;23316;50.718;7.328;2022-11-12T09:41:13;10.30;61.00
37456;DHT22;23316;50.718;7.328;2022-11-12T09:43:46;10.40;61.10
37456;DHT22;23316;50.718;7.328;2022-11-12T09:46:28;10.50;61.10
37456;DHT22;23316;50.718;7.328;2022-11-12T09:49:03;10.50;61.10
37456;DHT22;23316;50.718;7.328;2022-11-12T09:51:36;10.60;61.10
37456;DHT22;23316;50.718;7.328;2022-11-12T09:54:12;10.60;61.20
37456;DHT22;23316;50.718;7.328;2022-11-12T09:56:43;10.70;61.40
37456;DHT22;23316;50.718;7.328;2022-11-12T09:59:11;10.80;61.50
37456;DHT22;23316;50.718;7.328;2022-11-12T10:01:46;10.80;61.40
37456;DHT22;23316;50.718;7.328;2022-11-12T10:07:19;10.90;61.60
37456;DHT22;23316;50.718;7.328;2022-11-12T10:09:59;11.00;61.70
37456;DHT22;23316;50.718;7.328;2022-11-12T10:12:34;11.10;61.70
37456;DHT22;23316;50.718;7.328;2022-11-12T10:15:35;11.10;61.70
37456;DHT22;23316;50.718;7.328;2022-11-12T10:18:30;11.20;61.90
37456;DHT22;23316;50.718;7.328;2022-11-12T10:21:04;11.30;61.90
37456;DHT22;23316;50.718;7.328;2022-11-12T10:23:40;11.30;61.70
37456;DHT22;23316;50.718;7.328;2022-11-12T10:26:11;11.40;61.90
37456;DHT22;23316;50.718;7.328;2022-11-12T10:28:42;11.40;61.70
37456;DHT22;23316;50.718;7.328;2022-11-12T10:31:13;11.50;61.60
37456;DHT22;23316;50.718;7.328;2022-11-12T10:33:41;11.50;61.50
37456;DHT22;23316;50.718;7.328;2022-11-12T10:36:19;11.60;62.10
37456;DHT22;23316;50.718;7.328;2022-11-12T10:38:51;11.70;61.50
37456;DHT22;23316;50.718;7.328;2022-11-12T10:41:21;11.70;61.40
37456;DHT22;23316;50.718;7.328;2022-11-12T10:43:54;11.70;61.40
37456;DHT22;23316;50.718;7.328;2022-11-12T10:46:23;11.80;61.50
37456;DHT22;23316;50.718;7.328;2022-11-12T10:48:56;11.90;61.50
37456;DHT22;23316;50.718;7.328;2022-11-12T10:51:26;11.90;61.50
37456;DHT22;23316;50.718;7.328;2022-11-12T10:53:55;11.90;61.50
37456;DHT22;23316;50.718;7.328;2022-11-12T10:56:28;12.00;61.40
37456;DHT22;23316;50.718;7.328;2022-11-12T10:59:17;12.00;61.40
37456;DHT22;23316;50.718;7.328;2022-11-12T11:01:45;12.10;61.50
37456;DHT22;23316;50.718;7.328;2022-11-12T11:04:27;12.10;61.30
37456;DHT22;23316;50.718;7.328;2022-11-12T11:07:00;12.20;61.30
37456;DHT22;23316;50.718;7.328;2022-11-12T11:09:30;12.20;61.20
37456;DHT22;23316;50.718;7.328;2022-11-12T11:11:57;12.30;61.30
37456;DHT22;23316;50.718;7.328;2022-11-12T11:14:30;12.30;61.20
37456;DHT22;23316;50.718;7.328;2022-11-12T11:16:59;12.40;61.10
37456;DHT22;23316;50.718;7.328;2022-11-12T11:19:35;12.40;61.20
37456;DHT22;23316;50.718;7.328;2022-11-12T11:22:21;12.40;61.10
37456;DHT22;23316;50.718;7.328;2022-11-12T11:28:03;12.50;61.70
37456;DHT22;23316;50.718;7.328;2022-11-12T11:30:32;12.60;61.00
37456;DHT22;23316;50.718;7.328;2022-11-12T11:33:23;12.60;61.00
37456;DHT22;23316;50.718;7.328;2022-11-12T11:35:57;12.70;61.10
37456;DHT22;23316;50.718;7.328;2022-11-12T11:38:34;12.70;60.90
37456;DHT22;23316;50.718;7.328;2022-11-12T11:41:19;12.80;61.00
37456;DHT22;23316;50.718;7.328;2022-11-12T11:44:04;12.80;61.00
37456;DHT22;23316;50.718;7.328;2022-11-12T11:46:56;12.80;60.90
37456;DHT22;23316;50.718;7.328;2022-11-12T11:49:48;12.90;60.90
37456;DHT22;23316;50.718;7.328;2022-11-12T11:52:39;13.00;60.90
37456;DHT22;23316;50.718;7.328;2022-11-12T11:55:29;13.00;60.90
37456;DHT22;23316;50.718;7.328;2022-11-12T11:58:10;13.10;60.80
37456;DHT22;23316;50.718;7.328;2022-11-12T12:00:46;13.10;60.60
37456;DHT22;23316;50.718;7.328;2022-11-12T12:03:20;13.20;60.70
37456;DHT22;23316;50.718;7.328;2022-11-12T12:06:09;13.20;61.30
37456;DHT22;23316;50.718;7.328;2022-11-12T12:08:59;13.30;60.70
37456;DHT22;23316;50.718;7.328;2022-11-12T12:11:33;13.30;60.60
37456;DHT22;23316;50.718;7.328;2022-11-12T12:14:15;13.40;60.50
37456;DHT22;23316;50.718;7.328;2022-11-12T12:16:51;13.40;60.30
37456;DHT22;23316;50.718;7.328;2022-11-12T12:19:42;13.50;60.40
37456;DHT22;23316;50.718;7.328;2022-11-12T12:22:14;13.50;60.40
37456;DHT22;23316;50.718;7.328;2022-11-12T12:24:47;13.60;60.40
37456;DHT22;23316;50.718;7.328;2022-11-12T12:27:19;13.60;60.20
37456;DHT22;23316;50.718;7.328;2022-11-12T12:29:51;13.60;60.00
37456;DHT22;23316;50.718;7.328;2022-11-12T12:32:22;13.70;60.00
37456;DHT22;23316;50.718;7.328;2022-11-12T12:34:56;13.70;60.00
37456;DHT22;23316;50.718;7.328;2022-11-12T12:37:30;13.70;59.90
37456;DHT22;23316;50.718;7.328;2022-11-12T12:40:01;13.70;59.70
37456;DHT22;23316;50.718;7.328;2022-11-12T12:42:32;13.80;59.70
37456;DHT22;23316;50.718;7.328;2022-11-12T12:45:21;13.80;59.50
37456;DHT22;23316;50.718;7.328;2022-11-12T12:47:50;13.90;59.50
37456;DHT22;23316;50.718;7.328;2022-11-12T12:50:19;13.90;59.60
37456;DHT22;23316;50.718;7.328;2022-11-12T12:53:01;13.90;60.10
37456;DHT22;23316;50.718;7.328;2022-11-12T12:55:37;14.00;59.60
37456;DHT22;23316;50.718;7.328;2022-11-12T12:58:15;14.00;59.50
37456;DHT22;23316;50.718;7.328;2022-11-12T13:00:48;14.00;59.40
37456;DHT22;23316;50.718;7.328;2022-11-12T13:03:52;14.10;59.50
37456;DHT22;23316;50.718;7.328;2022-11-12T13:06:25;14.20;59.50
37456;DHT22;23316;50.718;7.328;2022-11-12T13:08:56;14.20;59.40
37456;DHT22;23316;50.718;7.328;2022-11-12T13:11:53;14.20;59.30
37456;DHT22;23316;50.718;7.328;2022-11-12T13:17:50;14.40;59.20
37456;DHT22;23316;50.718;7.328;2022-11-12T13:20:35;14.40;59.10
37456;DHT22;23316;50.718;7.328;2022-11-12T13:23:08;14.40;59.00
37456;DHT22;23316;50.718;7.328;2022-11-12T13:25:37;14.40;59.00
37456;DHT22;23316;50.718;7.328;2022-11-12T13:28:06;14.50;59.00
37456;DHT22;23316;50.718;7.328;2022-11-12T13:30:58;14.50;58.90
37456;DHT22;23316;50.718;7.328;2022-11-12T13:33:31;14.50;58.70
37456;DHT22;23316;50.718;7.328;2022-11-12T13:39:12;14.60;58.70
37456;DHT22;23316;50.718;7.328;2022-11-12T13:41:41;14.70;58.60
37456;DHT22;23316;50.718;7.328;2022-11-12T13:44:26;14.70;58.50
37456;DHT22;23316;50.718;7.328;2022-11-12T13:46:53;14.70;58.50
37456;DHT22;23316;50.718;7.328;2022-11-12T13:49:23;14.70;58.40
37456;DHT22;23316;50.718;7.328;2022-11-12T13:51:50;14.80;58.40
37456;DHT22;23316;50.718;7.328;2022-11-12T13:54:30;14.80;58.30
37456;DHT22;23316;50.718;7.328;2022-11-12T14:00:18;14.90;58.10
37456;DHT22;23316;50.718;7.328;2022-11-12T14:02:49;14.90;57.90
37456;DHT22;23316;50.718;7.328;2022-11-12T14:05:21;14.90;57.70
37456;DHT22;23316;50.718;7.328;2022-11-12T14:07:58;14.90;57.60
37456;DHT22;23316;50.718;7.328;2022-11-12T14:10:36;15.00;57.50
37456;DHT22;23316;50.718;7.328;2022-11-12T14:13:19;15.00;57.50
37456;DHT22;23316;50.718;7.328;2022-11-12T14:16:09;15.00;57.30
37456;DHT22;23316;50.718;7.328;2022-11-12T14:18:49;15.00;57.30
37456;DHT22;23316;50.718;7.328;2022-11-12T14:21:22;15.00;57.30
37456;DHT22;23316;50.718;7.328;2022-11-12T14:23:49;15.10;57.30
37456;DHT22;23316;50.718;7.328;2022-11-12T14:26:33;15.10;57.20
37456;DHT22;23316;50.718;7.328;2022-11-12T14:29:00;15.00;57.00
37456;DHT22;23316;50.718;7.328;2022-11-12T14:31:28;15.00;57.10
37456;DHT22;23316;50.718;7.328;2022-11-12T14:33:55;15.00;57.10
37456;DHT22;23316;50.718;7.328;2022-11-12T14:36:23;15.00;57.10
37456;DHT22;23316;50.718;7.328;2022-11-12T14:38:54;15.10;57.20
37456;DHT22;23316;50.718;7.328;2022-11-12T14:41:24;15.10;57.10
37456;DHT22;23316;50.718;7.328;2022-11-12T14:43:53;15.10;57.10
37456;DHT22;23316;50.718;7.328;2022-11-12T14:46:24;15.10;57.10
37456;DHT22;23316;50.718;7.328;2022-11-12T14:48:54;15.10;57.10
37456;DHT22;23316;50.718;7.328;2022-11-12T14:51:26;15.10;57.10
37456;DHT22;23316;50.718;7.328;2022-11-12T14:53:58;15.10;57.10
37456;DHT22;23316;50.718;7.328;2022-11-12T14:56:32;15.10;57.00
37456;DHT22;23316;50.718;7.328;2022-11-12T14:59:00;15.10;56.90
37456;DHT22;23316;50.718;7.328;2022-11-12T15:01:32;15.10;56.90
37456;DHT22;23316;50.718;7.328;2022-11-12T15:04:04;15.10;56.80
37456;DHT22;23316;50.718;7.328;2022-11-12T15:06:50;15.10;56.80
37456;DHT22;23316;50.718;7.328;2022-11-12T15:09:18;15.10;56.80
37456;DHT22;23316;50.718;7.328;2022-11-12T15:11:57;15.10;56.80
37456;DHT22;23316;50.718;7.328;2022-11-12T15:14:24;15.10;56.80
37456;DHT22;23316;50.718;7.328;2022-11-12T15:16:52;15.10;56.80
37456;DHT22;23316;50.718;7.328;2022-11-12T15:19:21;15.10;56.80
37456;DHT22;23316;50.718;7.328;2022-11-12T15:21:52;15.10;56.90
37456;DHT22;23316;50.718;7.328;2022-11-12T15:24:25;15.00;56.90
37456;DHT22;23316;50.718;7.328;2022-11-12T15:26:56;15.00;56.90
37456;DHT22;23316;50.718;7.328;2022-11-12T15:29:29;15.10;56.90
37456;DHT22;23316;50.718;7.328;2022-11-12T15:32:00;15.00;56.80
37456;DHT22;23316;50.718;7.328;2022-11-12T15:34:40;15.00;56.60
37456;DHT22;23316;50.718;7.328;2022-11-12T15:37:19;15.00;56.60
37456;DHT22;23316;50.718;7.328;2022-11-12T15:39:49;15.00;57.00
37456;DHT22;23316;50.718;7.328;2022-11-12T15:42:24;15.00;56.40
37456;DHT22;23316;50.718;7.328;2022-11-12T15:44:57;15.00;56.30
37456;DHT22;23316;50.718;7.328;2022-11-12T15:47:25;14.90;56.10
37456;DHT22;23316;50.718;7.328;2022-11-12T15:49:54;14.90;55.90
37456;DHT22;23316;50.718;7.328;2022-11-12T15:52:23;14.80;55.80
37456;DHT22;23316;50.718;7.328;2022-11-12T15:54:50;14.80;55.80
37456;DHT22;23316;50.718;7.328;2022-11-12T15:57:20;14.80;56.30
37456;DHT22;23316;50.718;7.328;2022-11-12T15:59:53;14.80;55.70
37456;DHT22;23316;50.718;7.328;2022-11-12T16:02:23;14.80;55.70
37456;DHT22;23316;50.718;7.328;2022-11-12T16:04:51;14.70;55.80
37456;DHT22;23316;50.718;7.328;2022-11-12T16:07:18;14.70;55.70
37456;DHT22;23316;50.718;7.328;2022-11-12T16:09:46;14.70;55.60
37456;DHT22;23316;50.718;7.328;2022-11-12T16:12:14;14.70;55.60
37456;DHT22;23316;50.718;7.328;2022-11-12T16:14:41;14.60;55.50
37456;DHT22;23316;50.718;7.328;2022-11-12T16:17:12;14.60;55.50
37456;DHT22;23316;50.718;7.328;2022-11-12T16:19:40;14.60;55.40
37456;DHT22;23316;50.718;7.328;2022-11-12T16:22:09;14.60;55.20